sensor_id;sensor_type;location;lat;lon;timestamp;temperature;humidity
20795;DHT22;28087;-33.874;151.240;2023-02-01T00:02:02;26.40;99.90
20795;DHT22;28087;-33.874;151.240;2023-02-01T00:04:38;26.50;99.90
20795;DHT22;28087;-33.874;151.240;2023-02-01T00:07:14;26.50;99.90
20795;DHT22;28087;-33.874;151.240;2023-02-01T00:10:03;26.70;99.90
20795;DHT22;28087;-33.874;151.240;2023-02-01T00:12:42;26.90;99.90
20795;DHT22;28087;-33.874;151.240;2023-02-01T00:15:34;27.00;99.90
20795;DHT22;28087;-33.874;151.240;2023-02-01T00:18:10;27.10;99.90
20795;DHT22;28087;-33.874;151.240;2023-02-01T00:20:47;27.00;99.90
20795;DHT22;28087;-33.874;151.240;2023-02-01T00:23:22;27.10;99.90
20795;DHT22;28087;-33.874;151.240;2023-02-01T00:26:06;27.20;99.90
20795;DHT22;28087;-33.874;151.240;2023-02-01T00:28:44;27.20;99.90
20795;DHT22;28087;-33.874;151.240;2023-02-01T00:31:50;27.20;99.90
20795;DHT22;28087;-33.874;151.240;2023-02-01T00:34:26;27.20;99.90
20795;DHT22;28087;-33.874;151.240;2023-02-01T00:37:02;27.00;99.90
20795;DHT22;28087;-33.874;151.240;2023-02-01T00:40:45;26.90;99.90
20795;DHT22;28087;-33.874;151.240;2023-02-01T00:43:24;26.80;99.90
20795;DHT22;28087;-33.874;151.240;2023-02-01T00:46:55;26.70;99.90
20795;DHT22;28087;-33.874;151.240;2023-02-01T00:49:37;26.70;99.90
20795;DHT22;28087;-33.874;151.240;2023-02-01T00:52:16;26.80;99.90
20795;DHT22;28087;-33.874;151.240;2023-02-01T00:54:56;26.70;99.90
20795;DHT22;28087;-33.874;151.240;2023-02-01T00:57:32;26.70;99.90
20795;DHT22;28087;-33.874;151.240;2023-02-01T01:00:09;26.60;99.90
20795;DHT22;28087;-33.874;151.240;2023-02-01T01:02:50;26.60;99.90
20795;DHT22;28087;-33.874;151.240;2023-02-01T01:05:56;26.70;99.90
20795;DHT22;28087;-33.874;151.240;2023-02-01T01:12:37;26.90;99.90
20795;DHT22;28087;-33.874;151.240;2023-02-01T01:16:14;27.00;99.90
20795;DHT22;28087;-33.874;151.240;2023-02-01T01:23:06;27.10;99.90
20795;DHT22;28087;-33.874;151.240;2023-02-01T01:26:15;27.00;99.90
20795;DHT22;28087;-33.874;151.240;2023-02-01T01:29:21;27.00;99.90
20795;DHT22;28087;-33.874;151.240;2023-02-01T01:31:57;27.20;99.90
20795;DHT22;28087;-33.874;151.240;2023-02-01T01:34:34;27.20;99.90
20795;DHT22;28087;-33.874;151.240;2023-02-01T01:37:14;27.30;99.90
20795;DHT22;28087;-33.874;151.240;2023-02-01T01:40:04;27.30;99.90
20795;DHT22;28087;-33.874;151.240;2023-02-01T01:42:41;27.30;99.90
20795;DHT22;28087;-33.874;151.240;2023-02-01T01:45:33;27.40;99.90
20795;DHT22;28087;-33.874;151.240;2023-02-01T01:48:12;27.40;99.90
20795;DHT22;28087;-33.874;151.240;2023-02-01T01:51:17;27.20;99.90
20795;DHT22;28087;-33.874;151.240;2023-02-01T01:54:06;27.30;99.90
20795;DHT22;28087;-33.874;151.240;2023-02-01T01:56:50;27.30;99.90
20795;DHT22;28087;-33.874;151.240;2023-02-01T01:59:28;27.40;99.90
20795;DHT22;28087;-33.874;151.240;2023-02-01T02:02:10;27.40;99.90
20795;DHT22;28087;-33.874;151.240;2023-02-01T02:05:19;27.40;99.90
20795;DHT22;28087;-33.874;151.240;2023-02-01T02:08:22;27.50;99.90
20795;DHT22;28087;-33.874;151.240;2023-02-01T02:11:07;27.60;99.90
20795;DHT22;28087;-33.874;151.240;2023-02-01T02:13:54;27.60;99.90
20795;DHT22;28087;-33.874;151.240;2023-02-01T02:16:57;27.70;99.90
20795;DHT22;28087;-33.874;151.240;2023-02-01T02:20:45;27.60;99.90
20795;DHT22;28087;-33.874;151.240;2023-02-01T02:23:42;27.70;99.90
20795;DHT22;28087;-33.874;151.240;2023-02-01T02:30:34;27.80;99.90
20795;DHT22;28087;-33.874;151.240;2023-02-01T02:38:15;27.80;99.90
20795;DHT22;28087;-33.874;151.240;2023-02-01T02:41:00;27.90;99.90
20795;DHT22;28087;-33.874;151.240;2023-02-01T02:43:46;27.90;99.90
20795;DHT22;28087;-33.874;151.240;2023-02-01T02:46:48;27.90;99.90
20795;DHT22;28087;-33.874;151.240;2023-02-01T02:49:48;27.90;99.90
20795;DHT22;28087;-33.874;151.240;2023-02-01T02:53:27;27.80;99.90
20795;DHT22;28087;-33.874;151.240;2023-02-01T02:56:21;27.60;99.90
20795;DHT22;28087;-33.874;151.240;2023-02-01T02:59:15;27.60;99.90
20795;DHT22;28087;-33.874;151.240;2023-02-01T03:02:09;27.50;99.90
20795;DHT22;28087;-33.874;151.240;2023-02-01T03:05:02;27.50;99.90
20795;DHT22;28087;-33.874;151.240;2023-02-01T03:07:54;27.60;99.90
20795;DHT22;28087;-33.874;151.240;2023-02-01T03:10:42;27.60;99.90
20795;DHT22;28087;-33.874;151.240;2023-02-01T03:13:33;27.60;99.90
20795;DHT22;28087;-33.874;151.240;2023-02-01T03:16:16;27.60;99.90
20795;DHT22;28087;-33.874;151.240;2023-02-01T03:19:08;27.70;99.90
20795;DHT22;28087;-33.874;151.240;2023-02-01T03:21:50;27.70;99.90
20795;DHT22;28087;-33.874;151.240;2023-02-01T03:24:29;27.70;99.90
20795;DHT22;28087;-33.874;151.240;2023-02-01T03:27:13;27.60;99.90
20795;DHT22;28087;-33.874;151.240;2023-02-01T03:29:54;27.60;99.90
20795;DHT22;28087;-33.874;151.240;2023-02-01T03:32:36;27.60;99.90
20795;DHT22;28087;-33.874;151.240;2023-02-01T03:35:28;27.60;99.90
20795;DHT22;28087;-33.874;151.240;2023-02-01T03:38:10;27.60;99.90
20795;DHT22;28087;-33.874;151.240;2023-02-01T03:40:53;27.60;99.90
20795;DHT22;28087;-33.874;151.240;2023-02-01T03:43:46;27.60;99.90
20795;DHT22;28087;-33.874;151.240;2023-02-01T03:46:29;27.70;99.90
20795;DHT22;28087;-33.874;151.240;2023-02-01T03:49:08;27.80;99.90
20795;DHT22;28087;-33.874;151.240;2023-02-01T03:51:45;27.80;99.90
20795;DHT22;28087;-33.874;151.240;2023-02-01T03:54:21;27.70;99.90
20795;DHT22;28087;-33.874;151.240;2023-02-01T03:57:01;27.70;99.90
20795;DHT22;28087;-33.874;151.240;2023-02-01T03:59:44;27.60;99.90
20795;DHT22;28087;-33.874;151.240;2023-02-01T04:02:43;27.70;99.90
20795;DHT22;28087;-33.874;151.240;2023-02-01T04:05:29;27.60;99.90
20795;DHT22;28087;-33.874;151.240;2023-02-01T04:08:08;27.50;99.90
20795;DHT22;28087;-33.874;151.240;2023-02-01T04:10:45;27.60;99.90
20795;DHT22;28087;-33.874;151.240;2023-02-01T04:13:48;27.60;99.90
20795;DHT22;28087;-33.874;151.240;2023-02-01T04:19:34;27.60;99.90
20795;DHT22;28087;-33.874;151.240;2023-02-01T04:22:13;27.70;99.90
20795;DHT22;28087;-33.874;151.240;2023-02-01T04:24:58;27.70;99.90
20795;DHT22;28087;-33.874;151.240;2023-02-01T04:27:36;27.80;99.90
20795;DHT22;28087;-33.874;151.240;2023-02-01T04:30:13;27.80;99.90
20795;DHT22;28087;-33.874;151.240;2023-02-01T04:33:07;27.80;99.90
20795;DHT22;28087;-33.874;151.240;2023-02-01T04:36:20;27.70;99.90
20795;DHT22;28087;-33.874;151.240;2023-02-01T04:39:16;27.60;99.90
20795;DHT22;28087;-33.874;151.240;2023-02-01T04:42:00;27.50;99.90
20795;DHT22;28087;-33.874;151.240;2023-02-01T04:44:35;27.50;99.90
20795;DHT22;28087;-33.874;151.240;2023-02-01T04:47:13;27.50;99.90
20795;DHT22;28087;-33.874;151.240;2023-02-01T04:53:40;27.50;99.90
20795;DHT22;28087;-33.874;151.240;2023-02-01T04:56:16;27.40;99.90
20795;DHT22;28087;-33.874;151.240;2023-02-01T04:59:05;27.20;99.90
20795;DHT22;28087;-33.874;151.240;2023-02-01T05:02:19;26.90;99.90
20795;DHT22;28087;-33.874;151.240;2023-02-01T05:04:55;26.90;99.90
20795;DHT22;28087;-33.874;151.240;2023-02-01T05:07:42;26.90;99.90
20795;DHT22;28087;-33.874;151.240;2023-02-01T05:10:20;26.70;99.90
20795;DHT22;28087;-33.874;151.240;2023-02-01T05:12:56;26.70;99.90
20795;DHT22;28087;-33.874;151.240;2023-02-01T05:15:48;26.70;99.90
20795;DHT22;28087;-33.874;151.240;2023-02-01T05:18:51;26.60;99.90
20795;DHT22;28087;-33.874;151.240;2023-02-01T05:21:27;26.70;99.90
20795;DHT22;28087;-33.874;151.240;2023-02-01T05:24:02;26.60;99.90
20795;DHT22;28087;-33.874;151.240;2023-02-01T05:27:00;26.60;99.90
20795;DHT22;28087;-33.874;151.240;2023-02-01T05:35:52;26.50;99.90
20795;DHT22;28087;-33.874;151.240;2023-02-01T05:38:36;26.60;99.90
20795;DHT22;28087;-33.874;151.240;2023-02-01T05:41:12;26.50;99.90
20795;DHT22;28087;-33.874;151.240;2023-02-01T05:44:00;26.50;99.90
20795;DHT22;28087;-33.874;151.240;2023-02-01T20:55:00;24.50;99.90
20795;DHT22;28087;-33.874;151.240;2023-02-01T21:05:25;25.10;99.90
20795;DHT22;28087;-33.874;151.240;2023-02-01T21:08:13;25.30;99.90
20795;DHT22;28087;-33.874;151.240;2023-02-01T21:10:56;25.30;99.90
20795;DHT22;28087;-33.874;151.240;2023-02-01T21:13:34;25.40;99.90
20795;DHT22;28087;-33.874;151.240;2023-02-01T21:16:15;25.50;99.90
20795;DHT22;28087;-33.874;151.240;2023-02-01T21:18:51;25.50;99.90
20795;DHT22;28087;-33.874;151.240;2023-02-01T21:21:27;25.60;99.90
20795;DHT22;28087;-33.874;151.240;2023-02-01T21:24:05;25.70;99.90
20795;DHT22;28087;-33.874;151.240;2023-02-01T21:26:41;25.80;99.90
20795;DHT22;28087;-33.874;151.240;2023-02-01T21:29:17;25.80;99.90
20795;DHT22;28087;-33.874;151.240;2023-02-01T21:31:54;25.90;99.90
20795;DHT22;28087;-33.874;151.240;2023-02-01T21:34:29;26.00;99.90
20795;DHT22;28087;-33.874;151.240;2023-02-01T21:37:05;26.00;99.90
20795;DHT22;28087;-33.874;151.240;2023-02-01T21:39:42;26.10;99.90
20795;DHT22;28087;-33.874;151.240;2023-02-01T21:42:18;26.20;99.90
20795;DHT22;28087;-33.874;151.240;2023-02-01T21:44:56;26.40;99.90
20795;DHT22;28087;-33.874;151.240;2023-02-01T21:47:33;26.40;99.90
20795;DHT22;28087;-33.874;151.240;2023-02-01T21:50:14;26.30;99.90
20795;DHT22;28087;-33.874;151.240;2023-02-01T21:52:50;26.10;99.90
20795;DHT22;28087;-33.874;151.240;2023-02-01T21:55:27;26.00;99.90
20795;DHT22;28087;-33.874;151.240;2023-02-01T21:58:03;26.10;99.90
20795;DHT22;28087;-33.874;151.240;2023-02-01T22:00:44;26.20;99.90
20795;DHT22;28087;-33.874;151.240;2023-02-01T22:03:20;26.30;99.90
20795;DHT22;28087;-33.874;151.240;2023-02-01T22:05:56;26.50;99.90
20795;DHT22;28087;-33.874;151.240;2023-02-01T22:08:34;26.60;99.90
20795;DHT22;28087;-33.874;151.240;2023-02-01T22:11:12;26.40;99.90
20795;DHT22;28087;-33.874;151.240;2023-02-01T22:13:48;26.40;99.90
20795;DHT22;28087;-33.874;151.240;2023-02-01T22:16:24;26.50;99.90
20795;DHT22;28087;-33.874;151.240;2023-02-01T22:19:02;26.40;99.90
20795;DHT22;28087;-33.874;151.240;2023-02-01T22:21:37;26.40;99.90
20795;DHT22;28087;-33.874;151.240;2023-02-01T22:24:15;26.40;99.90
20795;DHT22;28087;-33.874;151.240;2023-02-01T22:26:54;26.40;99.90
20795;DHT22;28087;-33.874;151.240;2023-02-01T22:29:44;26.50;99.90
20795;DHT22;28087;-33.874;151.240;2023-02-01T22:32:22;26.50;99.90
20795;DHT22;28087;-33.874;151.240;2023-02-01T22:34:57;26.40;99.90
20795;DHT22;28087;-33.874;151.240;2023-02-01T22:37:33;26.30;99.90
20795;DHT22;28087;-33.874;151.240;2023-02-01T22:40:14;26.20;99.90
20795;DHT22;28087;-33.874;151.240;2023-02-01T22:42:52;26.10;99.90
20795;DHT22;28087;-33.874;151.240;2023-02-01T22:45:28;26.10;99.90
20795;DHT22;28087;-33.874;151.240;2023-02-01T22:48:05;26.10;99.90
20795;DHT22;28087;-33.874;151.240;2023-02-01T22:50:41;26.10;99.90
20795;DHT22;28087;-33.874;151.240;2023-02-01T22:53:16;26.10;99.90
